sensor_id;sensor_type;location;lat;lon;timestamp;P1;durP1;ratioP1;P2;durP2;ratioP2
50301;SDS011;36550;50.472;19.744;2023-02-28T00:02:15;14.70;;;6.10;;
50301;SDS011;36550;50.472;19.744;2023-02-28T00:05:01;16.90;;;6.20;;
50301;SDS011;36550;50.472;19.744;2023-02-28T00:07:47;18.90;;;7.90;;
50301;SDS011;36550;50.472;19.744;2023-02-28T00:10:32;14.10;;;5.80;;
50301;SDS011;36550;50.472;19.744;2023-02-28T00:13:16;16.40;;;7.40;;
50301;SDS011;36550;50.472;19.744;2023-02-28T00:16:04;16.70;;;6.70;;
50301;SDS011;36550;50.472;19.744;2023-02-28T00:18:50;15.00;;;5.90;;
50301;SDS011;36550;50.472;19.744;2023-02-28T00:21:35;13.70;;;5.90;;
50301;SDS011;36550;50.472;19.744;2023-02-28T00:24:20;15.60;;;6.20;;
50301;SDS011;36550;50.472;19.744;2023-02-28T00:27:03;16.30;;;5.80;;
50301;SDS011;36550;50.472;19.744;2023-02-28T00:29:47;16.10;;;6.00;;
50301;SDS011;36550;50.472;19.744;2023-02-28T00:32:31;14.00;;;5.70;;
50301;SDS011;36550;50.472;19.744;2023-02-28T00:35:18;17.40;;;6.30;;
50301;SDS011;36550;50.472;19.744;2023-02-28T00:38:02;14.30;;;6.90;;
50301;SDS011;36550;50.472;19.744;2023-02-28T00:40:47;15.30;;;6.50;;
50301;SDS011;36550;50.472;19.744;2023-02-28T00:43:32;15.20;;;6.80;;
50301;SDS011;36550;50.472;19.744;2023-02-28T00:46:17;13.20;;;6.50;;
50301;SDS011;36550;50.472;19.744;2023-02-28T00:49:01;14.70;;;6.60;;
50301;SDS011;36550;50.472;19.744;2023-02-28T00:51:45;16.00;;;6.40;;
50301;SDS011;36550;50.472;19.744;2023-02-28T00:54:29;17.80;;;6.80;;
50301;SDS011;36550;50.472;19.744;2023-02-28T00:57:13;14.60;;;6.70;;
50301;SDS011;36550;50.472;19.744;2023-02-28T00:59:57;19.20;;;8.20;;
50301;SDS011;36550;50.472;19.744;2023-02-28T01:02:47;32.40;;;12.40;;
50301;SDS011;36550;50.472;19.744;2023-02-28T01:05:33;33.80;;;14.20;;
50301;SDS011;36550;50.472;19.744;2023-02-28T01:08:17;27.50;;;11.10;;
50301;SDS011;36550;50.472;19.744;2023-02-28T01:11:08;42.80;;;18.60;;
50301;SDS011;36550;50.472;19.744;2023-02-28T01:13:53;32.50;;;12.80;;
50301;SDS011;36550;50.472;19.744;2023-02-28T01:16:37;22.00;;;9.30;;
50301;SDS011;36550;50.472;19.744;2023-02-28T01:19:21;24.10;;;9.60;;
50301;SDS011;36550;50.472;19.744;2023-02-28T01:22:05;18.80;;;7.90;;
50301;SDS011;36550;50.472;19.744;2023-02-28T01:24:50;24.00;;;9.50;;
50301;SDS011;36550;50.472;19.744;2023-02-28T01:27:33;25.70;;;10.40;;
50301;SDS011;36550;50.472;19.744;2023-02-28T01:30:18;19.10;;;7.90;;
50301;SDS011;36550;50.472;19.744;2023-02-28T01:33:02;21.20;;;8.50;;
50301;SDS011;36550;50.472;19.744;2023-02-28T01:35:45;15.70;;;7.20;;
50301;SDS011;36550;50.472;19.744;2023-02-28T01:38:30;15.80;;;6.80;;
50301;SDS011;36550;50.472;19.744;2023-02-28T01:41:17;17.40;;;6.80;;
50301;SDS011;36550;50.472;19.744;2023-02-28T01:44:07;15.60;;;7.00;;
50301;SDS011;36550;50.472;19.744;2023-02-28T01:47:10;18.60;;;6.40;;
50301;SDS011;36550;50.472;19.744;2023-02-28T01:49:58;15.40;;;6.50;;
50301;SDS011;36550;50.472;19.744;2023-02-28T01:52:45;15.90;;;6.60;;
50301;SDS011;36550;50.472;19.744;2023-02-28T01:55:30;16.60;;;6.60;;
50301;SDS011;36550;50.472;19.744;2023-02-28T01:58:16;16.40;;;6.70;;
50301;SDS011;36550;50.472;19.744;2023-02-28T02:01:01;14.00;;;6.60;;
50301;SDS011;36550;50.472;19.744;2023-02-28T02:03:54;16.60;;;6.50;;
50301;SDS011;36550;50.472;19.744;2023-02-28T02:06:42;16.30;;;6.80;;
50301;SDS011;36550;50.472;19.744;2023-02-28T02:09:31;13.40;;;6.20;;
50301;SDS011;36550;50.472;19.744;2023-02-28T02:15:17;13.10;;;6.00;;
50301;SDS011;36550;50.472;19.744;2023-02-28T02:18:14;17.60;;;6.70;;
50301;SDS011;36550;50.472;19.744;2023-02-28T02:30:21;20.10;;;7.90;;
50301;SDS011;36550;50.472;19.744;2023-02-28T02:33:36;17.00;;;8.00;;
50301;SDS011;36550;50.472;19.744;2023-02-28T02:36:26;21.30;;;9.70;;
50301;SDS011;36550;50.472;19.744;2023-02-28T02:39:14;41.70;;;18.20;;
50301;SDS011;36550;50.472;19.744;2023-02-28T02:42:04;35.00;;;14.80;;
50301;SDS011;36550;50.472;19.744;2023-02-28T02:45:07;34.90;;;15.00;;
50301;SDS011;36550;50.472;19.744;2023-02-28T02:50:54;39.20;;;16.10;;
50301;SDS011;36550;50.472;19.744;2023-02-28T02:53:43;40.10;;;14.90;;
50301;SDS011;36550;50.472;19.744;2023-02-28T02:56:33;35.90;;;13.10;;
50301;SDS011;36550;50.472;19.744;2023-02-28T02:59:20;27.30;;;11.70;;
50301;SDS011;36550;50.472;19.744;2023-02-28T03:02:08;35.90;;;14.10;;
50301;SDS011;36550;50.472;19.744;2023-02-28T03:05:01;37.40;;;14.30;;
50301;SDS011;36550;50.472;19.744;2023-02-28T03:08:06;38.90;;;15.30;;
50301;SDS011;36550;50.472;19.744;2023-02-28T03:11:13;33.60;;;12.90;;
50301;SDS011;36550;50.472;19.744;2023-02-28T03:20:35;24.70;;;8.90;;
50301;SDS011;36550;50.472;19.744;2023-02-28T03:24:10;27.00;;;10.30;;
50301;SDS011;36550;50.472;19.744;2023-02-28T03:27:10;25.40;;;10.80;;
50301;SDS011;36550;50.472;19.744;2023-02-28T03:30:35;21.50;;;9.50;;
50301;SDS011;36550;50.472;19.744;2023-02-28T03:33:42;23.20;;;9.70;;
50301;SDS011;36550;50.472;19.744;2023-02-28T03:36:39;21.60;;;9.60;;
50301;SDS011;36550;50.472;19.744;2023-02-28T03:39:36;19.00;;;8.90;;
50301;SDS011;36550;50.472;19.744;2023-02-28T03:42:36;22.20;;;8.90;;
50301;SDS011;36550;50.472;19.744;2023-02-28T03:45:22;19.30;;;9.40;;
50301;SDS011;36550;50.472;19.744;2023-02-28T03:48:13;22.90;;;10.40;;
50301;SDS011;36550;50.472;19.744;2023-02-28T03:51:05;22.50;;;10.20;;
50301;SDS011;36550;50.472;19.744;2023-02-28T03:53:54;22.30;;;9.90;;
50301;SDS011;36550;50.472;19.744;2023-02-28T03:56:46;23.80;;;10.60;;
50301;SDS011;36550;50.472;19.744;2023-02-28T03:59:41;25.40;;;12.20;;
50301;SDS011;36550;50.472;19.744;2023-02-28T04:02:30;28.90;;;11.90;;
50301;SDS011;36550;50.472;19.744;2023-02-28T04:05:15;26.90;;;12.30;;
50301;SDS011;36550;50.472;19.744;2023-02-28T04:08:06;28.00;;;13.50;;
50301;SDS011;36550;50.472;19.744;2023-02-28T04:11:04;25.00;;;12.00;;
50301;SDS011;36550;50.472;19.744;2023-02-28T04:13:58;27.90;;;12.70;;
50301;SDS011;36550;50.472;19.744;2023-02-28T04:16:44;29.50;;;12.70;;
50301;SDS011;36550;50.472;19.744;2023-02-28T04:19:29;29.30;;;12.10;;
50301;SDS011;36550;50.472;19.744;2023-02-28T04:22:12;24.10;;;10.90;;
50301;SDS011;36550;50.472;19.744;2023-02-28T04:24:57;25.00;;;11.30;;
50301;SDS011;36550;50.472;19.744;2023-02-28T04:27:41;20.20;;;10.40;;
50301;SDS011;36550;50.472;19.744;2023-02-28T04:30:24;26.50;;;10.70;;
50301;SDS011;36550;50.472;19.744;2023-02-28T04:33:16;29.60;;;12.70;;
50301;SDS011;36550;50.472;19.744;2023-02-28T04:36:07;55.20;;;21.00;;
50301;SDS011;36550;50.472;19.744;2023-02-28T04:38:54;82.20;;;30.50;;
50301;SDS011;36550;50.472;19.744;2023-02-28T04:41:58;73.80;;;26.80;;
50301;SDS011;36550;50.472;19.744;2023-02-28T04:44:44;72.20;;;27.60;;
50301;SDS011;36550;50.472;19.744;2023-02-28T04:47:28;67.60;;;25.40;;
50301;SDS011;36550;50.472;19.744;2023-02-28T04:50:12;44.90;;;16.70;;
50301;SDS011;36550;50.472;19.744;2023-02-28T04:53:12;39.30;;;16.00;;
50301;SDS011;36550;50.472;19.744;2023-02-28T04:55:56;38.80;;;15.90;;
50301;SDS011;36550;50.472;19.744;2023-02-28T04:58:44;37.60;;;15.30;;
50301;SDS011;36550;50.472;19.744;2023-02-28T05:01:30;37.20;;;15.40;;
50301;SDS011;36550;50.472;19.744;2023-02-28T05:04:17;40.70;;;15.20;;
50301;SDS011;36550;50.472;19.744;2023-02-28T05:07:02;67.50;;;22.10;;
50301;SDS011;36550;50.472;19.744;2023-02-28T05:09:47;69.00;;;23.80;;
50301;SDS011;36550;50.472;19.744;2023-02-28T05:12:51;63.40;;;23.80;;
50301;SDS011;36550;50.472;19.744;2023-02-28T05:15:35;71.80;;;25.20;;
50301;SDS011;36550;50.472;19.744;2023-02-28T05:18:19;65.70;;;23.40;;
50301;SDS011;36550;50.472;19.744;2023-02-28T05:21:03;71.20;;;26.40;;
50301;SDS011;36550;50.472;19.744;2023-02-28T05:23:48;67.00;;;25.20;;
50301;SDS011;36550;50.472;19.744;2023-02-28T05:26:34;73.60;;;25.50;;
50301;SDS011;36550;50.472;19.744;2023-02-28T05:29:19;65.10;;;24.30;;
50301;SDS011;36550;50.472;19.744;2023-02-28T05:32:04;66.90;;;23.40;;
50301;SDS011;36550;50.472;19.744;2023-02-28T05:35:04;73.10;;;24.20;;
50301;SDS011;36550;50.472;19.744;2023-02-28T05:37:53;69.50;;;24.90;;
50301;SDS011;36550;50.472;19.744;2023-02-28T05:40:57;70.10;;;25.80;;
50301;SDS011;36550;50.472;19.744;2023-02-28T05:44:01;148.90;;;47.70;;
50301;SDS011;36550;50.472;19.744;2023-02-28T05:46:47;151.10;;;45.00;;
50301;SDS011;36550;50.472;19.744;2023-02-28T05:49:31;222.50;;;65.60;;
50301;SDS011;36550;50.472;19.744;2023-02-28T05:52:15;221.20;;;60.40;;
50301;SDS011;36550;50.472;19.744;2023-02-28T05:54:59;186.80;;;51.50;;
50301;SDS011;36550;50.472;19.744;2023-02-28T05:58:03;200.70;;;54.30;;
50301;SDS011;36550;50.472;19.744;2023-02-28T06:00:50;199.10;;;53.80;;
50301;SDS011;36550;50.472;19.744;2023-02-28T06:03:37;178.40;;;49.50;;
50301;SDS011;36550;50.472;19.744;2023-02-28T06:06:43;156.40;;;45.10;;
50301;SDS011;36550;50.472;19.744;2023-02-28T06:09:30;160.30;;;46.60;;
50301;SDS011;36550;50.472;19.744;2023-02-28T06:12:15;166.90;;;47.10;;
50301;SDS011;36550;50.472;19.744;2023-02-28T06:15:19;179.70;;;54.50;;
50301;SDS011;36550;50.472;19.744;2023-02-28T06:18:05;197.60;;;56.70;;
50301;SDS011;36550;50.472;19.744;2023-02-28T06:20:55;178.60;;;57.10;;
50301;SDS011;36550;50.472;19.744;2023-02-28T06:23:39;161.40;;;54.30;;
50301;SDS011;36550;50.472;19.744;2023-02-28T06:26:45;128.40;;;46.30;;
50301;SDS011;36550;50.472;19.744;2023-02-28T06:29:29;105.20;;;42.40;;
50301;SDS011;36550;50.472;19.744;2023-02-28T06:32:14;94.80;;;37.70;;
50301;SDS011;36550;50.472;19.744;2023-02-28T06:34:59;111.80;;;43.40;;
50301;SDS011;36550;50.472;19.744;2023-02-28T06:37:43;110.80;;;45.10;;
50301;SDS011;36550;50.472;19.744;2023-02-28T06:40:28;82.00;;;33.40;;
50301;SDS011;36550;50.472;19.744;2023-02-28T06:43:15;62.80;;;26.50;;
50301;SDS011;36550;50.472;19.744;2023-02-28T06:46:00;63.70;;;27.20;;
50301;SDS011;36550;50.472;19.744;2023-02-28T06:48:46;64.40;;;25.70;;
50301;SDS011;36550;50.472;19.744;2023-02-28T06:51:30;61.40;;;25.70;;
50301;SDS011;36550;50.472;19.744;2023-02-28T06:54:31;66.20;;;27.20;;
50301;SDS011;36550;50.472;19.744;2023-02-28T06:57:16;55.30;;;23.90;;
50301;SDS011;36550;50.472;19.744;2023-02-28T07:00:04;56.10;;;23.80;;
50301;SDS011;36550;50.472;19.744;2023-02-28T07:02:51;51.30;;;21.00;;
50301;SDS011;36550;50.472;19.744;2023-02-28T07:05:35;49.70;;;22.00;;
50301;SDS011;36550;50.472;19.744;2023-02-28T07:08:20;49.80;;;19.60;;
50301;SDS011;36550;50.472;19.744;2023-02-28T07:11:05;40.80;;;17.40;;
50301;SDS011;36550;50.472;19.744;2023-02-28T07:13:54;53.80;;;22.80;;
50301;SDS011;36550;50.472;19.744;2023-02-28T07:16:41;37.30;;;16.00;;
50301;SDS011;36550;50.472;19.744;2023-02-28T07:19:24;37.70;;;16.50;;
50301;SDS011;36550;50.472;19.744;2023-02-28T07:22:08;31.00;;;14.30;;
50301;SDS011;36550;50.472;19.744;2023-02-28T07:24:52;31.00;;;14.20;;
50301;SDS011;36550;50.472;19.744;2023-02-28T07:27:36;33.30;;;15.20;;
50301;SDS011;36550;50.472;19.744;2023-02-28T07:30:21;35.90;;;17.00;;
50301;SDS011;36550;50.472;19.744;2023-02-28T07:33:06;35.50;;;16.10;;
50301;SDS011;36550;50.472;19.744;2023-02-28T07:35:51;31.70;;;15.40;;
50301;SDS011;36550;50.472;19.744;2023-02-28T07:38:37;30.30;;;15.90;;
50301;SDS011;36550;50.472;19.744;2023-02-28T07:41:21;31.90;;;15.50;;
50301;SDS011;36550;50.472;19.744;2023-02-28T07:44:27;30.60;;;13.90;;
50301;SDS011;36550;50.472;19.744;2023-02-28T07:47:13;31.20;;;14.10;;
50301;SDS011;36550;50.472;19.744;2023-02-28T07:49:57;30.60;;;13.20;;
50301;SDS011;36550;50.472;19.744;2023-02-28T07:52:41;53.70;;;28.10;;
50301;SDS011;36550;50.472;19.744;2023-02-28T07:55:27;29.80;;;14.40;;
50301;SDS011;36550;50.472;19.744;2023-02-28T07:58:52;30.50;;;13.80;;
50301;SDS011;36550;50.472;19.744;2023-02-28T08:01:50;26.00;;;13.50;;
50301;SDS011;36550;50.472;19.744;2023-02-28T08:04:35;25.50;;;13.40;;
50301;SDS011;36550;50.472;19.744;2023-02-28T08:07:22;26.20;;;13.10;;
50301;SDS011;36550;50.472;19.744;2023-02-28T08:10:06;34.10;;;16.20;;
50301;SDS011;36550;50.472;19.744;2023-02-28T08:12:54;28.20;;;12.50;;
50301;SDS011;36550;50.472;19.744;2023-02-28T08:15:38;34.20;;;16.30;;
50301;SDS011;36550;50.472;19.744;2023-02-28T08:18:22;33.90;;;17.40;;
50301;SDS011;36550;50.472;19.744;2023-02-28T08:21:08;27.50;;;12.90;;
50301;SDS011;36550;50.472;19.744;2023-02-28T08:23:54;26.30;;;11.80;;
50301;SDS011;36550;50.472;19.744;2023-02-28T08:26:39;27.20;;;14.60;;
50301;SDS011;36550;50.472;19.744;2023-02-28T08:29:23;29.30;;;14.30;;
50301;SDS011;36550;50.472;19.744;2023-02-28T08:32:08;26.00;;;13.40;;
50301;SDS011;36550;50.472;19.744;2023-02-28T08:34:52;26.60;;;14.50;;
50301;SDS011;36550;50.472;19.744;2023-02-28T08:37:36;24.60;;;13.10;;
50301;SDS011;36550;50.472;19.744;2023-02-28T08:40:20;21.10;;;10.60;;
50301;SDS011;36550;50.472;19.744;2023-02-28T08:43:05;20.10;;;11.20;;
50301;SDS011;36550;50.472;19.744;2023-02-28T08:45:51;36.40;;;19.40;;
50301;SDS011;36550;50.472;19.744;2023-02-28T08:48:36;25.10;;;13.50;;
50301;SDS011;36550;50.472;19.744;2023-02-28T08:51:23;18.10;;;9.80;;
50301;SDS011;36550;50.472;19.744;2023-02-28T08:54:10;15.70;;;8.50;;
50301;SDS011;36550;50.472;19.744;2023-02-28T08:57:02;16.30;;;7.70;;
50301;SDS011;36550;50.472;19.744;2023-02-28T08:59:47;16.60;;;7.90;;
50301;SDS011;36550;50.472;19.744;2023-02-28T09:02:31;14.60;;;7.50;;
50301;SDS011;36550;50.472;19.744;2023-02-28T09:05:15;16.20;;;7.60;;
50301;SDS011;36550;50.472;19.744;2023-02-28T09:07:59;14.90;;;7.70;;
50301;SDS011;36550;50.472;19.744;2023-02-28T09:10:43;20.60;;;9.50;;
50301;SDS011;36550;50.472;19.744;2023-02-28T09:13:30;19.50;;;10.10;;
50301;SDS011;36550;50.472;19.744;2023-02-28T09:16:16;13.90;;;7.50;;
50301;SDS011;36550;50.472;19.744;2023-02-28T09:19:00;13.60;;;7.10;;
50301;SDS011;36550;50.472;19.744;2023-02-28T09:21:45;15.10;;;7.50;;
50301;SDS011;36550;50.472;19.744;2023-02-28T09:24:29;17.30;;;7.70;;
50301;SDS011;36550;50.472;19.744;2023-02-28T09:27:15;13.20;;;7.00;;
50301;SDS011;36550;50.472;19.744;2023-02-28T09:29:59;14.50;;;7.30;;
50301;SDS011;36550;50.472;19.744;2023-02-28T09:32:43;15.50;;;7.10;;
50301;SDS011;36550;50.472;19.744;2023-02-28T09:35:35;14.80;;;6.30;;
50301;SDS011;36550;50.472;19.744;2023-02-28T09:38:21;17.00;;;8.00;;
50301;SDS011;36550;50.472;19.744;2023-02-28T09:41:10;13.40;;;7.70;;
50301;SDS011;36550;50.472;19.744;2023-02-28T09:43:59;14.90;;;6.90;;
50301;SDS011;36550;50.472;19.744;2023-02-28T09:46:47;25.40;;;10.10;;
50301;SDS011;36550;50.472;19.744;2023-02-28T09:49:40;16.60;;;8.10;;
50301;SDS011;36550;50.472;19.744;2023-02-28T09:52:36;14.50;;;7.60;;
50301;SDS011;36550;50.472;19.744;2023-02-28T09:55:28;14.80;;;7.20;;
50301;SDS011;36550;50.472;19.744;2023-02-28T09:58:54;18.10;;;9.70;;
50301;SDS011;36550;50.472;19.744;2023-02-28T10:01:56;13.10;;;6.90;;
50301;SDS011;36550;50.472;19.744;2023-02-28T10:04:52;18.30;;;8.60;;
50301;SDS011;36550;50.472;19.744;2023-02-28T10:11:03;13.70;;;7.70;;
50301;SDS011;36550;50.472;19.744;2023-02-28T10:13:56;17.00;;;7.70;;
50301;SDS011;36550;50.472;19.744;2023-02-28T10:19:59;11.80;;;6.90;;
50301;SDS011;36550;50.472;19.744;2023-02-28T10:22:53;14.70;;;7.30;;
50301;SDS011;36550;50.472;19.744;2023-02-28T10:25:44;15.70;;;8.30;;
50301;SDS011;36550;50.472;19.744;2023-02-28T10:28:38;17.70;;;7.70;;
50301;SDS011;36550;50.472;19.744;2023-02-28T10:31:23;13.50;;;7.40;;
50301;SDS011;36550;50.472;19.744;2023-02-28T10:34:08;14.30;;;7.60;;
50301;SDS011;36550;50.472;19.744;2023-02-28T10:36:56;14.20;;;7.20;;
50301;SDS011;36550;50.472;19.744;2023-02-28T10:39:51;15.90;;;8.20;;
50301;SDS011;36550;50.472;19.744;2023-02-28T10:42:35;12.70;;;7.10;;
50301;SDS011;36550;50.472;19.744;2023-02-28T10:45:22;14.60;;;7.50;;
50301;SDS011;36550;50.472;19.744;2023-02-28T10:50:54;12.00;;;7.70;;
50301;SDS011;36550;50.472;19.744;2023-02-28T10:53:50;14.60;;;7.80;;
50301;SDS011;36550;50.472;19.744;2023-02-28T10:56:36;12.90;;;7.40;;
50301;SDS011;36550;50.472;19.744;2023-02-28T10:59:23;23.00;;;11.40;;
50301;SDS011;36550;50.472;19.744;2023-02-28T11:02:45;13.80;;;8.60;;
50301;SDS011;36550;50.472;19.744;2023-02-28T11:05:33;14.80;;;7.80;;
50301;SDS011;36550;50.472;19.744;2023-02-28T11:08:19;17.80;;;8.00;;
50301;SDS011;36550;50.472;19.744;2023-02-28T11:11:05;12.80;;;8.00;;
50301;SDS011;36550;50.472;19.744;2023-02-28T11:13:51;16.30;;;8.70;;
50301;SDS011;36550;50.472;19.744;2023-02-28T11:16:38;14.00;;;7.80;;
50301;SDS011;36550;50.472;19.744;2023-02-28T11:19:23;14.00;;;8.50;;
50301;SDS011;36550;50.472;19.744;2023-02-28T11:22:10;14.30;;;7.70;;
50301;SDS011;36550;50.472;19.744;2023-02-28T11:25:07;18.10;;;8.90;;
50301;SDS011;36550;50.472;19.744;2023-02-28T11:28:24;15.00;;;8.50;;
50301;SDS011;36550;50.472;19.744;2023-02-28T11:31:16;13.70;;;8.10;;
50301;SDS011;36550;50.472;19.744;2023-02-28T11:34:07;19.60;;;10.70;;
50301;SDS011;36550;50.472;19.744;2023-02-28T11:37:10;15.10;;;8.90;;
50301;SDS011;36550;50.472;19.744;2023-02-28T11:40:16;16.70;;;9.50;;
50301;SDS011;36550;50.472;19.744;2023-02-28T11:43:21;16.30;;;9.20;;
50301;SDS011;36550;50.472;19.744;2023-02-28T11:49:13;26.90;;;11.30;;
50301;SDS011;36550;50.472;19.744;2023-02-28T11:52:01;15.80;;;8.50;;
50301;SDS011;36550;50.472;19.744;2023-02-28T11:55:14;14.40;;;8.30;;
50301;SDS011;36550;50.472;19.744;2023-02-28T11:58:26;15.30;;;8.20;;
50301;SDS011;36550;50.472;19.744;2023-02-28T12:07:09;11.20;;;6.70;;
50301;SDS011;36550;50.472;19.744;2023-02-28T12:10:22;14.10;;;8.10;;
50301;SDS011;36550;50.472;19.744;2023-02-28T12:29:28;15.30;;;8.70;;
50301;SDS011;36550;50.472;19.744;2023-02-28T12:32:39;13.50;;;8.00;;
50301;SDS011;36550;50.472;19.744;2023-02-28T12:35:31;16.50;;;8.30;;
50301;SDS011;36550;50.472;19.744;2023-02-28T12:38:36;16.60;;;8.80;;
50301;SDS011;36550;50.472;19.744;2023-02-28T12:41:27;15.70;;;9.10;;
50301;SDS011;36550;50.472;19.744;2023-02-28T12:44:24;19.20;;;10.50;;
50301;SDS011;36550;50.472;19.744;2023-02-28T12:47:20;19.00;;;10.00;;
50301;SDS011;36550;50.472;19.744;2023-02-28T12:50:08;16.70;;;8.70;;
50301;SDS011;36550;50.472;19.744;2023-02-28T12:56:19;15.50;;;8.10;;
50301;SDS011;36550;50.472;19.744;2023-02-28T12:59:16;17.10;;;9.20;;
50301;SDS011;36550;50.472;19.744;2023-02-28T13:02:24;23.70;;;11.70;;
50301;SDS011;36550;50.472;19.744;2023-02-28T13:05:25;16.40;;;9.40;;
50301;SDS011;36550;50.472;19.744;2023-02-28T13:08:42;17.00;;;9.00;;
50301;SDS011;36550;50.472;19.744;2023-02-28T13:11:49;17.30;;;8.90;;
50301;SDS011;36550;50.472;19.744;2023-02-28T13:14:36;18.80;;;10.00;;
50301;SDS011;36550;50.472;19.744;2023-02-28T13:17:21;15.00;;;8.30;;
50301;SDS011;36550;50.472;19.744;2023-02-28T13:20:47;20.20;;;10.10;;
50301;SDS011;36550;50.472;19.744;2023-02-28T13:29:35;17.40;;;9.10;;
50301;SDS011;36550;50.472;19.744;2023-02-28T13:35:13;19.80;;;10.10;;
50301;SDS011;36550;50.472;19.744;2023-02-28T13:38:09;17.40;;;9.30;;
50301;SDS011;36550;50.472;19.744;2023-02-28T13:49:43;19.30;;;10.80;;
50301;SDS011;36550;50.472;19.744;2023-02-28T13:52:28;18.50;;;9.90;;
50301;SDS011;36550;50.472;19.744;2023-02-28T13:55:26;16.90;;;8.30;;
50301;SDS011;36550;50.472;19.744;2023-02-28T13:58:24;19.20;;;10.00;;
50301;SDS011;36550;50.472;19.744;2023-02-28T14:04:41;19.90;;;10.40;;
50301;SDS011;36550;50.472;19.744;2023-02-28T14:07:33;21.00;;;10.70;;
50301;SDS011;36550;50.472;19.744;2023-02-28T14:13:45;22.30;;;10.60;;
50301;SDS011;36550;50.472;19.744;2023-02-28T14:16:41;18.30;;;9.20;;
50301;SDS011;36550;50.472;19.744;2023-02-28T14:19:29;19.20;;;9.90;;
50301;SDS011;36550;50.472;19.744;2023-02-28T14:31:32;18.80;;;10.70;;
50301;SDS011;36550;50.472;19.744;2023-02-28T14:34:25;20.00;;;11.50;;
50301;SDS011;36550;50.472;19.744;2023-02-28T14:37:26;28.10;;;14.20;;
50301;SDS011;36550;50.472;19.744;2023-02-28T14:40:21;24.90;;;13.30;;
50301;SDS011;36550;50.472;19.744;2023-02-28T14:43:20;24.60;;;12.50;;
50301;SDS011;36550;50.472;19.744;2023-02-28T14:46:06;22.20;;;11.10;;
50301;SDS011;36550;50.472;19.744;2023-02-28T14:48:50;21.50;;;10.80;;
50301;SDS011;36550;50.472;19.744;2023-02-28T14:51:35;17.00;;;10.00;;
50301;SDS011;36550;50.472;19.744;2023-02-28T14:54:19;18.50;;;10.10;;
50301;SDS011;36550;50.472;19.744;2023-02-28T14:57:20;20.00;;;10.40;;
50301;SDS011;36550;50.472;19.744;2023-02-28T15:00:16;29.80;;;12.20;;
50301;SDS011;36550;50.472;19.744;2023-02-28T15:06:16;16.90;;;9.30;;
50301;SDS011;36550;50.472;19.744;2023-02-28T15:09:08;21.80;;;10.40;;
50301;SDS011;36550;50.472;19.744;2023-02-28T15:11:55;19.10;;;9.50;;
50301;SDS011;36550;50.472;19.744;2023-02-28T15:14:39;21.20;;;10.30;;
50301;SDS011;36550;50.472;19.744;2023-02-28T15:17:27;24.60;;;11.50;;
50301;SDS011;36550;50.472;19.744;2023-02-28T15:20:12;37.30;;;15.70;;
50301;SDS011;36550;50.472;19.744;2023-02-28T15:22:59;34.90;;;15.00;;
50301;SDS011;36550;50.472;19.744;2023-02-28T15:25:44;41.30;;;16.80;;
50301;SDS011;36550;50.472;19.744;2023-02-28T15:28:31;31.90;;;16.10;;
50301;SDS011;36550;50.472;19.744;2023-02-28T15:31:23;27.40;;;11.80;;
50301;SDS011;36550;50.472;19.744;2023-02-28T15:34:19;29.30;;;12.30;;
50301;SDS011;36550;50.472;19.744;2023-02-28T15:40:25;30.50;;;13.80;;
50301;SDS011;36550;50.472;19.744;2023-02-28T15:43:16;29.40;;;15.20;;
50301;SDS011;36550;50.472;19.744;2023-02-28T15:46:06;25.30;;;12.10;;
50301;SDS011;36550;50.472;19.744;2023-02-28T15:48:54;23.30;;;11.90;;
50301;SDS011;36550;50.472;19.744;2023-02-28T15:51:40;30.00;;;15.70;;
50301;SDS011;36550;50.472;19.744;2023-02-28T15:54:27;34.40;;;16.80;;
50301;SDS011;36550;50.472;19.744;2023-02-28T15:57:23;37.50;;;16.50;;
50301;SDS011;36550;50.472;19.744;2023-02-28T16:00:14;30.80;;;14.80;;
50301;SDS011;36550;50.472;19.744;2023-02-28T16:03:00;24.50;;;12.20;;
50301;SDS011;36550;50.472;19.744;2023-02-28T16:05:46;24.70;;;12.80;;
50301;SDS011;36550;50.472;19.744;2023-02-28T16:08:49;28.50;;;13.20;;
50301;SDS011;36550;50.472;19.744;2023-02-28T16:11:35;37.20;;;15.50;;
50301;SDS011;36550;50.472;19.744;2023-02-28T16:14:24;37.40;;;15.60;;
50301;SDS011;36550;50.472;19.744;2023-02-28T16:17:23;41.80;;;17.50;;
50301;SDS011;36550;50.472;19.744;2023-02-28T16:22:59;29.70;;;15.10;;
50301;SDS011;36550;50.472;19.744;2023-02-28T16:28:32;27.40;;;12.90;;
50301;SDS011;36550;50.472;19.744;2023-02-28T16:31:18;24.50;;;13.20;;
50301;SDS011;36550;50.472;19.744;2023-02-28T16:36:51;28.30;;;13.00;;
50301;SDS011;36550;50.472;19.744;2023-02-28T16:39:35;30.60;;;13.20;;
50301;SDS011;36550;50.472;19.744;2023-02-28T16:42:23;33.20;;;13.30;;
50301;SDS011;36550;50.472;19.744;2023-02-28T16:45:20;22.90;;;10.50;;
50301;SDS011;36550;50.472;19.744;2023-02-28T16:48:07;25.40;;;12.10;;
50301;SDS011;36550;50.472;19.744;2023-02-28T16:50:57;26.70;;;12.10;;
50301;SDS011;36550;50.472;19.744;2023-02-28T16:53:43;117.20;;;42.50;;
50301;SDS011;36550;50.472;19.744;2023-02-28T16:56:31;158.50;;;50.40;;
50301;SDS011;36550;50.472;19.744;2023-02-28T16:59:23;148.00;;;48.00;;
50301;SDS011;36550;50.472;19.744;2023-02-28T17:02:11;150.50;;;49.50;;
50301;SDS011;36550;50.472;19.744;2023-02-28T17:04:58;256.50;;;102.80;;
50301;SDS011;36550;50.472;19.744;2023-02-28T17:07:45;370.80;;;161.40;;
50301;SDS011;36550;50.472;19.744;2023-02-28T17:10:30;349.30;;;134.60;;
50301;SDS011;36550;50.472;19.744;2023-02-28T17:13:14;352.80;;;134.80;;
50301;SDS011;36550;50.472;19.744;2023-02-28T17:15:58;350.70;;;118.40;;
50301;SDS011;36550;50.472;19.744;2023-02-28T17:18:42;299.60;;;85.60;;
50301;SDS011;36550;50.472;19.744;2023-02-28T17:21:26;166.10;;;47.60;;
50301;SDS011;36550;50.472;19.744;2023-02-28T17:24:11;115.20;;;34.30;;
50301;SDS011;36550;50.472;19.744;2023-02-28T17:26:55;71.10;;;24.30;;
50301;SDS011;36550;50.472;19.744;2023-02-28T17:29:53;71.00;;;24.40;;
50301;SDS011;36550;50.472;19.744;2023-02-28T17:33:21;136.60;;;42.40;;
50301;SDS011;36550;50.472;19.744;2023-02-28T17:36:23;121.30;;;41.90;;
50301;SDS011;36550;50.472;19.744;2023-02-28T17:39:09;175.10;;;55.60;;
50301;SDS011;36550;50.472;19.744;2023-02-28T17:42:16;151.10;;;51.80;;
50301;SDS011;36550;50.472;19.744;2023-02-28T17:44:59;147.00;;;44.70;;
50301;SDS011;36550;50.472;19.744;2023-02-28T17:47:44;160.20;;;48.80;;
50301;SDS011;36550;50.472;19.744;2023-02-28T17:50:30;112.10;;;36.70;;
50301;SDS011;36550;50.472;19.744;2023-02-28T17:53:15;85.90;;;31.00;;
50301;SDS011;36550;50.472;19.744;2023-02-28T17:55:59;105.10;;;38.10;;
50301;SDS011;36550;50.472;19.744;2023-02-28T17:58:44;142.20;;;51.30;;
50301;SDS011;36550;50.472;19.744;2023-02-28T18:01:28;182.00;;;61.20;;
50301;SDS011;36550;50.472;19.744;2023-02-28T18:04:13;174.50;;;58.70;;
50301;SDS011;36550;50.472;19.744;2023-02-28T18:07:17;199.30;;;58.70;;
50301;SDS011;36550;50.472;19.744;2023-02-28T18:10:11;227.80;;;78.80;;
50301;SDS011;36550;50.472;19.744;2023-02-28T18:13:03;212.10;;;70.40;;